Time;durP1;ratioP1;P1;durP2;ratioP2;P2;SDS_P1;SDS_P2;PMS_P1;PMS_P2;Temp;Humidity;BMP_temperature;BMP_pressure;BME280_temperature;BME280_humidity;BME280_pressure;Samples;Min_cycle;Max_cycle;Signal;HPM_P1;HPM_P2
2021/10/22 00:00:21;;;;;;;;;;;;;;;;;;1029751;28;1031;-11
2021/10/22 00:00:51;;;;;;;;;;;;;;;;;;1025968;28;1062;-11
2021/10/22 00:01:22;;;;;;;;;;;;;;;;;;1029069;28;1278;-10
2021/10/22 00:01:52;;;;;;;;;;;;;;;;;;1025768;28;1279;-10
2021/10/22 00:02:23;;;;;;;;;;;;;;;;;;1025980;28;890;-11
2021/10/22 00:02:54;;;;;;;;;;;;;;;;;;1032800;28;1297;-10
2021/10/22 00:03:24;;;;;;;;;;;;;;;;;;1033999;28;1076;-11
2021/10/22 00:03:54;;;;;;;;;;;;;;;;;;1037721;28;1135;-11
2021/10/22 00:04:26;;;;;;;;;;;;;;;;;;1037578;28;1032;-11
2021/10/22 00:04:56;;;;;;;;;;;;;;;;;;1025883;28;1171;-11
2021/10/22 00:05:27;;;;;;;;;;;;;;;;;;1027419;28;1236;-11
2021/10/22 00:05:59;;;;;;;;;;;;;;;;;;1029829;28;1119;-10
2021/10/22 00:06:30;;;;;;;;;;;;;;;;;;1025885;28;1662;-11
2021/10/22 00:07:01;;;;;;;;;;;;;;;;;;1021485;29;1092;-11
2021/10/22 00:07:33;;;;;;;;;;;;;;;;;;1017885;29;1063;-10
2021/10/22 00:08:03;;;;;;;;;;;;;;;;;;1013571;29;1480;-11
2021/10/22 00:08:33;;;;;;;;;;;;;;;;;;1021662;28;1203;-11
2021/10/22 00:09:06;;;;;;;;;;;;;;;;;;1025905;28;1344;-11
2021/10/22 00:09:37;;;;;;;;;;;;;;;;;;1025872;28;1061;-11
2021/10/22 00:10:08;;;;;;;;;;;;;;;;;;1029877;28;1084;-11
2021/10/22 00:10:39;;;;;;;;;;;;;;;;;;1029571;28;1607;-11
2021/10/22 00:11:11;;;;;;;;;;;;;;;;;;1021610;28;1030;-11
2021/10/22 00:11:45;;;;;;;;;;;;;;;;;;1021675;29;1092;-11
2021/10/22 00:12:15;;;;;;;;;;;;;;;;;;1021456;29;1336;-11
2021/10/22 00:12:47;;;;;;;;;;;;;;;;;;1017953;29;1060;-11
2021/10/22 00:13:17;;;;;;;;;;;;;;;;;;1018458;28;1985;-11
2021/10/22 00:13:48;;;;;;;;;;;;;;;;;;1025578;28;1393;-11
2021/10/22 00:14:19;;;;;;;;;;;;;;;;;;1022073;28;1126;-10
2021/10/22 00:14:49;;;;;;;;;;;;;;;;;;1029270;28;1577;-10
2021/10/22 00:15:21;;;;;;;;;;;;;;;;;;1029579;28;1214;-10
2021/10/22 00:15:51;;;;;;;;;;;;;;;;;;1029244;28;1158;-10
2021/10/22 00:16:22;;;;;;;;;;;;;;;;;;1029514;28;1173;-11
2021/10/22 00:16:53;;;;;;;;;;;;;;;;;;1021994;29;1040;-10
2021/10/22 00:17:24;;;;;;;;;;;;;;;;;;1021339;28;1201;-11
2021/10/22 00:17:55;;;;;;;;;;;;;;;;;;1029709;28;1013;-11
2021/10/22 00:18:26;;;;;;;;;;;;;;;;;;1025699;28;1192;-11
2021/10/22 00:18:56;;;;;;;;;;;;;;;;;;1029735;28;1165;-11
2021/10/22 00:19:27;;;;;;;;;;;;;;;;;;1029584;28;1088;-11
2021/10/22 00:19:57;;;;;;;;;;;;;;;;;;1025200;28;1275;-11
2021/10/22 00:20:28;;;;;;;;;;;;;;;;;;1025770;28;1490;-10
2021/10/22 00:20:59;;;;;;;;;;;;;;;;;;1025865;28;1057;-11
2021/10/22 00:21:30;;;;;;;;;;;;;;;;;;1025299;28;1178;-11
2021/10/22 00:22:00;;;;;;;;;;;;;;;;;;1029929;28;1188;-11
2021/10/22 00:22:32;;;;;;;;;;;;;;;;;;1021601;28;1481;-11
2021/10/22 00:23:02;;;;;;;;;;;;;;;;;;1021749;28;1084;-11
2021/10/22 00:23:33;;;;;;;;;;;;;;;;;;1025729;28;1184;-11
2021/10/22 00:24:04;;;;;;;;;;;;;;;;;;1028809;28;1771;-11
2021/10/22 00:24:34;;;;;;;;;;;;;;;;;;1029771;28;1251;-10
2021/10/22 00:25:06;;;;;;;;;;;;;;;;;;1029468;28;1303;-11
2021/10/22 00:25:37;;;;;;;;;;;;;;;;;;1025689;28;1191;-10
2021/10/22 00:26:10;;;;;;;;;;;;;;;;;;1026020;28;1058;-11
2021/10/22 00:26:41;;;;;;;;;;;;;;;;;;1029191;28;1603;-11
2021/10/22 00:27:11;;;;;;;;;;;;;;;;;;1032895;28;1659;-10
2021/10/22 00:27:43;;;;;;;;;;;;;;;;;;1025463;28;1182;-11
2021/10/22 00:28:13;;;;;;;;;;;;;;;;;;1025498;28;1048;-11
2021/10/22 00:28:45;;;;;;;;;;;;;;;;;;1025813;28;1245;-11
2021/10/22 00:29:15;;;;;;;;;;;;;;;;;;1028757;28;1688;-11
2021/10/22 00:29:46;;;;;;;;;;;;;;;;;;1033403;28;1196;-11
2021/10/22 00:30:17;;;;;;;;;;;;;;;;;;1033850;28;1101;-11
2021/10/22 00:30:48;;;;;;;;;;;;;;;;;;1033284;28;1150;-11
2021/10/22 00:31:18;;;;;;;;;;;;;;;;;;1021584;29;1139;-11
2021/10/22 00:31:49;;;;;;;;;;;;;;;;;;1021100;29;1283;-11
2021/10/22 00:32:19;;;;;;;;;;;;;;;;;;1017348;29;1145;-11
2021/10/22 00:32:50;;;;;;;;;;;;;;;;;;1022188;28;903;-10
2021/10/22 00:33:21;;;;;;;;;;;;;;;;;;1025021;28;1983;-11
2021/10/22 00:33:52;;;;;;;;;;;;;;;;;;1026132;28;930;-11
2021/10/22 00:34:23;;;;;;;;;;;;;;;;;;1025450;28;1079;-11
2021/10/22 00:34:53;;;;;;;;;;;;;;;;;;1017477;29;1751;-11
2021/10/22 00:35:24;;;;;;;;;;;;;;;;;;1021722;29;1073;-11
2021/10/22 00:35:55;;;;;;;;;;;;;;;;;;1013875;29;1095;-11
2021/10/22 00:36:26;;;;;;;;;;;;;;;;;;1014182;28;924;-10
2021/10/22 00:36:57;;;;;;;;;;;;;;;;;;1025995;28;978;-11
2021/10/22 00:37:28;;;;;;;;;;;;;;;;;;1025546;28;1699;-11
2021/10/22 00:37:58;;;;;;;;;;;;;;;;;;1037729;28;1001;-11
2021/10/22 00:38:29;;;;;;;;;;;;;;;;;;1036921;28;1164;-10
2021/10/22 00:38:59;;;;;;;;;;;;;;;;;;1037708;28;1165;-11
2021/10/22 00:39:30;;;;;;;;;;;;;;;;;;1037947;28;1225;-11
2021/10/22 00:40:00;;;;;;;;;;;;;;;;;;1033721;28;1179;-11
2021/10/22 00:40:31;;;;;;;;;;;;;;;;;;1029613;28;1113;-11
2021/10/22 00:41:01;;;;;;;;;;;;;;;;;;1029488;28;1132;-10
2021/10/22 00:41:32;;;;;;;;;;;;;;;;;;1030270;28;1109;-10
2021/10/22 00:42:07;;;;;;;;;;;;;;;;;;1026132;28;1242;-11
2021/10/22 00:42:38;;;;;;;;;;;;;;;;;;1021832;29;1765;-11
2021/10/22 00:43:09;;;;;;;;;;;;;;;;;;1014368;29;1048;-11
2021/10/22 00:43:40;;;;;;;;;;;;;;;;;;1009660;29;1351;-10
2021/10/22 00:44:10;;;;;;;;;;;;;;;;;;1010470;29;1229;-11
2021/10/22 00:44:42;;;;;;;;;;;;;;;;;;1011164;29;1813;-11
2021/10/22 00:45:12;;;;;;;;;;;;;;;;;;1018363;28;1250;-10
2021/10/22 00:45:43;;;;;;;;;;;;;;;;;;1022568;28;1029;-11
2021/10/22 00:46:14;;;;;;;;;;;;;;;;;;1022612;29;1082;-11
2021/10/22 00:46:44;;;;;;;;;;;;;;;;;;1021882;28;1531;-11
2021/10/22 00:47:15;;;;;;;;;;;;;;;;;;1026489;28;1173;-11
2021/10/22 00:47:46;;;;;;;;;;;;;;;;;;1029868;28;1418;-11
2021/10/22 00:48:17;;;;;;;;;;;;;;;;;;1034399;28;1248;-11
2021/10/22 00:48:48;;;;;;;;;;;;;;;;;;1030642;28;1065;-11
2021/10/22 00:49:21;;;;;;;;;;;;;;;;;;1033295;28;1257;-11
2021/10/22 00:49:52;;;;;;;;;;;;;;;;;;1030474;28;1347;-10
2021/10/22 00:50:23;;;;;;;;;;;;;;;;;;1029726;28;1150;-11
2021/10/22 00:51:00;;;;;;;;;;;;;;;;;;1021383;29;1197;-11
2021/10/22 00:51:31;;;;;;;;;;;;;;;;;;1018642;29;892;-10
2021/10/22 00:52:02;;;;;;;;;;;;;;;;;;1026232;28;1186;-11
2021/10/22 00:52:33;;;;;;;;;;;;;;;;;;1033465;28;1243;-10
2021/10/22 00:53:05;;;;;;;;;;;;;;;;;;1025403;28;1209;-11
2021/10/22 00:53:37;;;;;;;;;;;;;;;;;;1025946;28;1902;-10
2021/10/22 00:54:10;;;;;;;;;;;;;;;;;;1019267;28;1114;-11
2021/10/22 00:54:41;;;;;;;;;;;;;;;;;;1025879;28;1229;-11
2021/10/22 00:55:12;;;;;;;;;;;;;;;;;;1022409;29;1073;-10
2021/10/22 00:55:45;;;;;;;;;;;;;;;;;;1021336;28;1163;-11
2021/10/22 00:56:16;;;;;;;;;;;;;;;;;;1022270;29;1048;-11
2021/10/22 00:56:48;;;;;;;;;;;;;;;;;;1023066;28;1339;-11
2021/10/22 00:57:20;;;;;;;;;;;;;;;;;;1018511;29;1205;-11
2021/10/22 00:57:51;;;;;;;;;;;;;;;;;;1025871;28;1034;-11
2021/10/22 00:58:22;;;;;;;;;;;;;;;;;;1017996;29;1412;-11
2021/10/22 00:58:53;;;;;;;;;;;;;;;;;;1019118;28;1079;-11
2021/10/22 00:59:24;;;;;;;;;;;;;;;;;;1030055;28;1151;-11
2021/10/22 00:59:55;;;;;;;;;;;;;;;;;;1025521;28;1185;-11
2021/10/22 01:00:26;;;;;;;;;;;;;;;;;;1026373;28;1129;-10
2021/10/22 01:00:57;;;;;;;;;;;;;;;;;;1026274;28;1168;-11
2021/10/22 01:01:28;;;;;;;;;;;;;;;;;;1025885;28;1114;-11
2021/10/22 01:01:58;;;;;;;;;;;;;;;;;;1014597;29;969;-10
2021/10/22 01:02:29;;;;;;;;;;;;;;;;;;1021595;29;1081;-10
2021/10/22 01:03:00;;;;;;;;;;;;;;;;;;1014419;29;1059;-11
2021/10/22 01:03:31;;;;;;;;;;;;;;;;;;1018748;28;1012;-10
2021/10/22 01:04:01;;;;;;;;;;;;;;;;;;1029470;28;1188;-11
2021/10/22 01:04:32;;;;;;;;;;;;;;;;;;1026601;28;1026;-11
2021/10/22 01:05:08;;;;;;;;;;;;;;;;;;1034063;28;1509;-10
2021/10/22 01:05:39;;;;;;;;;;;;;;;;;;1034456;28;1205;-10
2021/10/22 01:06:11;;;;;;;;;;;;;;;;;;1030359;28;1366;-11
2021/10/22 01:06:41;;;;;;;;;;;;;;;;;;1030825;28;1212;-11
2021/10/22 01:07:15;;;;;;;;;;;;;;;;;;1034599;28;997;-10
2021/10/22 01:07:46;;;;;;;;;;;;;;;;;;1034025;28;1820;-11
2021/10/22 01:08:16;;;;;;;;;;;;;;;;;;1030924;28;1127;-10
2021/10/22 01:08:47;;;;;;;;;;;;;;;;;;1031175;28;1222;-11
2021/10/22 01:09:17;;;;;;;;;;;;;;;;;;1034587;28;1069;-11
2021/10/22 01:09:48;;;;;;;;;;;;;;;;;;1038587;28;1105;-10
2021/10/22 01:10:18;;;;;;;;;;;;;;;;;;1038605;28;1104;-10
2021/10/22 01:10:49;;;;;;;;;;;;;;;;;;1038626;28;1316;-11
2021/10/22 01:11:20;;;;;;;;;;;;;;;;;;1034314;28;1068;-11
2021/10/22 01:11:51;;;;;;;;;;;;;;;;;;1037996;28;1229;-11
2021/10/22 01:12:21;;;;;;;;;;;;;;;;;;1037842;28;1519;-10
2021/10/22 01:12:52;;;;;;;;;;;;;;;;;;1038603;28;1016;-11
2021/10/22 01:13:24;;;;;;;;;;;;;;;;;;1034000;28;1914;-11
2021/10/22 01:13:54;;;;;;;;;;;;;;;;;;1031032;28;1165;-11
2021/10/22 01:14:25;;;;;;;;;;;;;;;;;;1030784;28;1127;-11
2021/10/22 01:14:56;;;;;;;;;;;;;;;;;;1029876;28;1375;-11
2021/10/22 01:15:27;;;;;;;;;;;;;;;;;;1038564;28;1241;-11
2021/10/22 01:15:57;;;;;;;;;;;;;;;;;;1034319;28;1299;-10
2021/10/22 01:16:28;;;;;;;;;;;;;;;;;;1029976;28;1342;-11
2021/10/22 01:16:59;;;;;;;;;;;;;;;;;;1018233;29;1228;-11
2021/10/22 01:17:41;;;;;;;;;;;;;;;;;;1029920;28;1236;-10
2021/10/22 01:18:13;;;;;;;;;;;;;;;;;;1025260;28;1053;-11
2021/10/22 01:18:46;;;;;;;;;;;;;;;;;;1024551;28;1181;-11
2021/10/22 01:19:17;;;;;;;;;;;;;;;;;;1020009;29;1145;-11
2021/10/22 01:19:48;;;;;;;;;;;;;;;;;;1022500;29;1012;-11
2021/10/22 01:20:19;;;;;;;;;;;;;;;;;;1023091;28;1325;-10
2021/10/22 01:20:55;;;;;;;;;;;;;;;;;;1034055;28;1273;-11
2021/10/22 01:21:26;;;;;;;;;;;;;;;;;;1033650;28;1438;-11
2021/10/22 01:21:57;;;;;;;;;;;;;;;;;;1030043;28;1655;-10
2021/10/22 01:22:27;;;;;;;;;;;;;;;;;;1030266;28;1403;-11
2021/10/22 01:22:58;;;;;;;;;;;;;;;;;;1034196;28;1196;-10
2021/10/22 01:23:28;;;;;;;;;;;;;;;;;;1030449;28;1105;-11
2021/10/22 01:23:58;;;;;;;;;;;;;;;;;;1030563;28;970;-11
2021/10/22 01:24:29;;;;;;;;;;;;;;;;;;1030430;28;1104;-11
2021/10/22 01:25:00;;;;;;;;;;;;;;;;;;1034308;28;1141;-11
2021/10/22 01:25:32;;;;;;;;;;;;;;;;;;1034333;28;1167;-11
2021/10/22 01:26:03;;;;;;;;;;;;;;;;;;1038067;28;1398;-11
2021/10/22 01:26:34;;;;;;;;;;;;;;;;;;1038109;28;1166;-11
2021/10/22 01:27:04;;;;;;;;;;;;;;;;;;1033561;28;1162;-11
2021/10/22 01:27:35;;;;;;;;;;;;;;;;;;1033966;28;1125;-11
2021/10/22 01:28:08;;;;;;;;;;;;;;;;;;1031031;28;1215;-11
2021/10/22 01:28:40;;;;;;;;;;;;;;;;;;1029813;28;1504;-11
2021/10/22 01:29:12;;;;;;;;;;;;;;;;;;1025468;28;1197;-11
2021/10/22 01:29:43;;;;;;;;;;;;;;;;;;1025812;28;1384;-11
2021/10/22 01:30:15;;;;;;;;;;;;;;;;;;1026562;28;995;-10
2021/10/22 01:30:46;;;;;;;;;;;;;;;;;;1030302;28;1019;-11
2021/10/22 01:31:17;;;;;;;;;;;;;;;;;;1022018;28;1910;-11
2021/10/22 01:31:47;;;;;;;;;;;;;;;;;;1026445;28;1086;-11
2021/10/22 01:32:18;;;;;;;;;;;;;;;;;;1021892;29;1758;-12
2021/10/22 01:32:58;;;;;;;;;;;;;;;;;;1014500;29;1269;-11
2021/10/22 01:33:30;;;;;;;;;;;;;;;;;;1017826;29;1973;-11
2021/10/22 01:34:00;;;;;;;;;;;;;;;;;;1021983;29;1323;-10
2021/10/22 01:34:31;;;;;;;;;;;;;;;;;;1023633;28;1204;-11
2021/10/22 01:35:02;;;;;;;;;;;;;;;;;;1026305;28;1182;-11
2021/10/22 01:35:33;;;;;;;;;;;;;;;;;;1026379;28;1252;-11
2021/10/22 01:36:04;;;;;;;;;;;;;;;;;;1030632;28;994;-11
2021/10/22 01:36:35;;;;;;;;;;;;;;;;;;1029814;28;1519;-11
2021/10/22 01:37:06;;;;;;;;;;;;;;;;;;1026410;28;1085;-11
2021/10/22 01:37:38;;;;;;;;;;;;;;;;;;1026324;28;1058;-11
2021/10/22 01:38:09;;;;;;;;;;;;;;;;;;1033852;28;1012;-11
2021/10/22 01:38:39;;;;;;;;;;;;;;;;;;1034296;28;1277;-11
2021/10/22 01:39:10;;;;;;;;;;;;;;;;;;1042182;28;1009;-11
2021/10/22 01:39:41;;;;;;;;;;;;;;;;;;1042754;28;1150;-11
2021/10/22 01:40:12;;;;;;;;;;;;;;;;;;1038188;28;1088;-10
2021/10/22 01:40:44;;;;;;;;;;;;;;;;;;1029256;28;1574;-10
2021/10/22 01:41:14;;;;;;;;;;;;;;;;;;1021954;29;1551;-10
2021/10/22 01:41:45;;;;;;;;;;;;;;;;;;1022230;28;1765;-10
2021/10/22 01:42:16;;;;;;;;;;;;;;;;;;1014010;29;1150;-11
2021/10/22 01:42:48;;;;;;;;;;;;;;;;;;1014541;29;1061;-10
2021/10/22 01:43:19;;;;;;;;;;;;;;;;;;1013818;29;1208;-11
2021/10/22 01:43:50;;;;;;;;;;;;;;;;;;1014798;28;1378;-11
2021/10/22 01:44:23;;;;;;;;;;;;;;;;;;1025631;28;1187;-11
2021/10/22 01:44:54;;;;;;;;;;;;;;;;;;1028981;28;1141;-11
2021/10/22 01:45:26;;;;;;;;;;;;;;;;;;1030347;28;1256;-11
2021/10/22 01:45:57;;;;;;;;;;;;;;;;;;1021120;29;1179;-11
2021/10/22 01:46:28;;;;;;;;;;;;;;;;;;1022504;28;1105;-10
2021/10/22 01:46:59;;;;;;;;;;;;;;;;;;1021278;29;1092;-11
2021/10/22 01:47:30;;;;;;;;;;;;;;;;;;1022719;28;1410;-10
2021/10/22 01:48:00;;;;;;;;;;;;;;;;;;1022267;29;1447;-11
2021/10/22 01:48:30;;;;;;;;;;;;;;;;;;1021420;28;1241;-10
2021/10/22 01:49:01;;;;;;;;;;;;;;;;;;1025906;28;1235;-10
2021/10/22 01:49:31;;;;;;;;;;;;;;;;;;1025994;28;1163;-11
2021/10/22 01:50:03;;;;;;;;;;;;;;;;;;1029518;28;1664;-11
2021/10/22 01:50:34;;;;;;;;;;;;;;;;;;1034144;28;1223;-11
2021/10/22 01:51:05;;;;;;;;;;;;;;;;;;1037552;28;1680;-11
2021/10/22 01:51:36;;;;;;;;;;;;;;;;;;1033986;28;1150;-11
2021/10/22 01:52:07;;;;;;;;;;;;;;;;;;1041702;28;1021;-11
2021/10/22 01:52:37;;;;;;;;;;;;;;;;;;1021188;29;1186;-11
2021/10/22 01:53:09;;;;;;;;;;;;;;;;;;1026026;28;1108;-10
2021/10/22 01:53:40;;;;;;;;;;;;;;;;;;1025211;28;1130;-10
2021/10/22 01:54:12;;;;;;;;;;;;;;;;;;1022378;28;1225;-11
2021/10/22 01:54:42;;;;;;;;;;;;;;;;;;1025887;28;1228;-11
2021/10/22 01:55:13;;;;;;;;;;;;;;;;;;1022489;28;1078;-10
2021/10/22 01:55:43;;;;;;;;;;;;;;;;;;1034368;28;1222;-11
2021/10/22 01:56:14;;;;;;;;;;;;;;;;;;1033869;28;1111;-10
2021/10/22 01:56:45;;;;;;;;;;;;;;;;;;1034213;28;1181;-10
2021/10/22 01:57:16;;;;;;;;;;;;;;;;;;1034169;28;1482;-11
2021/10/22 01:57:49;;;;;;;;;;;;;;;;;;1025241;28;1555;-10
2021/10/22 01:58:20;;;;;;;;;;;;;;;;;;1026040;28;1414;-11
2021/10/22 01:58:51;;;;;;;;;;;;;;;;;;1025630;28;1117;-11
2021/10/22 01:59:22;;;;;;;;;;;;;;;;;;1024675;28;1284;-11
2021/10/22 01:59:53;;;;;;;;;;;;;;;;;;1017731;29;1391;-11
2021/10/22 02:00:23;;;;;;;;;;;;;;;;;;1016938;29;1354;-12
2021/10/22 02:00:54;;;;;;;;;;;;;;;;;;1010141;29;1136;-11
2021/10/22 02:01:25;;;;;;;;;;;;;;;;;;1014390;29;1062;-11
2021/10/22 02:01:56;;;;;;;;;;;;;;;;;;1021736;28;1178;-11
2021/10/22 02:02:26;;;;;;;;;;;;;;;;;;1030141;28;1173;-11
2021/10/22 02:02:57;;;;;;;;;;;;;;;;;;1029458;28;1433;-10
2021/10/22 02:03:28;;;;;;;;;;;;;;;;;;1025644;28;1281;-11
2021/10/22 02:03:59;;;;;;;;;;;;;;;;;;1025941;28;1089;-11
2021/10/22 02:04:31;;;;;;;;;;;;;;;;;;1029762;28;1750;-11
2021/10/22 02:05:02;;;;;;;;;;;;;;;;;;1026254;28;1198;-10
2021/10/22 02:05:33;;;;;;;;;;;;;;;;;;1034198;28;1253;-11
2021/10/22 02:06:04;;;;;;;;;;;;;;;;;;1033154;28;1308;-10
2021/10/22 02:06:35;;;;;;;;;;;;;;;;;;1034958;28;1217;-10
2021/10/22 02:07:05;;;;;;;;;;;;;;;;;;1041755;28;1209;-10
2021/10/22 02:07:36;;;;;;;;;;;;;;;;;;1038143;28;1087;-11
2021/10/22 02:08:07;;;;;;;;;;;;;;;;;;1038376;28;1144;-10
2021/10/22 02:08:37;;;;;;;;;;;;;;;;;;1037521;28;1424;-11
2021/10/22 02:09:08;;;;;;;;;;;;;;;;;;1038190;28;1108;-10
2021/10/22 02:09:39;;;;;;;;;;;;;;;;;;1034127;28;1192;-10
2021/10/22 02:10:09;;;;;;;;;;;;;;;;;;1025796;28;1220;-11
2021/10/22 02:10:41;;;;;;;;;;;;;;;;;;1014165;29;1186;-11
2021/10/22 02:11:11;;;;;;;;;;;;;;;;;;1014077;29;1105;-10
2021/10/22 02:11:43;;;;;;;;;;;;;;;;;;1022604;28;1043;-11
2021/10/22 02:12:13;;;;;;;;;;;;;;;;;;1022912;28;984;-10
2021/10/22 02:12:44;;;;;;;;;;;;;;;;;;1025494;28;1397;-11
2021/10/22 02:13:14;;;;;;;;;;;;;;;;;;1025678;28;1988;-11
2021/10/22 02:13:45;;;;;;;;;;;;;;;;;;1017868;29;1630;-11
2021/10/22 02:14:15;;;;;;;;;;;;;;;;;;1025740;28;1280;-10
2021/10/22 02:14:46;;;;;;;;;;;;;;;;;;1034382;28;1123;-11
2021/10/22 02:15:17;;;;;;;;;;;;;;;;;;1033295;28;1404;-11
2021/10/22 02:15:48;;;;;;;;;;;;;;;;;;1033792;28;1551;-10
2021/10/22 02:16:18;;;;;;;;;;;;;;;;;;1029769;28;1106;-11
2021/10/22 02:16:49;;;;;;;;;;;;;;;;;;1026551;28;1285;-11
2021/10/22 02:17:19;;;;;;;;;;;;;;;;;;1030842;28;858;-11
2021/10/22 02:17:50;;;;;;;;;;;;;;;;;;1030412;28;1214;-11
2021/10/22 02:18:21;;;;;;;;;;;;;;;;;;1030168;28;1028;-11
2021/10/22 02:18:51;;;;;;;;;;;;;;;;;;1030323;28;1111;-11
2021/10/22 02:19:22;;;;;;;;;;;;;;;;;;1029994;28;1056;-10
2021/10/22 02:19:52;;;;;;;;;;;;;;;;;;1030394;28;1193;-11
2021/10/22 02:20:23;;;;;;;;;;;;;;;;;;1037976;28;1068;-10
2021/10/22 02:20:53;;;;;;;;;;;;;;;;;;1034315;28;1262;-11
2021/10/22 02:21:25;;;;;;;;;;;;;;;;;;1030129;28;1167;-11
2021/10/22 02:21:55;;;;;;;;;;;;;;;;;;1021531;29;1377;-11
2021/10/22 02:22:27;;;;;;;;;;;;;;;;;;1014215;29;1144;-11
2021/10/22 02:22:58;;;;;;;;;;;;;;;;;;1014240;29;1402;-10
2021/10/22 02:23:29;;;;;;;;;;;;;;;;;;1022091;28;1248;-11
2021/10/22 02:24:00;;;;;;;;;;;;;;;;;;1026093;28;1312;-12
2021/10/22 02:24:30;;;;;;;;;;;;;;;;;;1025489;28;1211;-11
2021/10/22 02:25:01;;;;;;;;;;;;;;;;;;1026412;28;1064;-11
2021/10/22 02:25:32;;;;;;;;;;;;;;;;;;1029869;28;1759;-11
2021/10/22 02:26:03;;;;;;;;;;;;;;;;;;1029889;28;1274;-11
2021/10/22 02:26:34;;;;;;;;;;;;;;;;;;1021184;29;1244;-10
2021/10/22 02:27:05;;;;;;;;;;;;;;;;;;1017342;29;1107;-11
2021/10/22 02:27:36;;;;;;;;;;;;;;;;;;1014247;29;1181;-11
2021/10/22 02:28:06;;;;;;;;;;;;;;;;;;1014511;29;1168;-11
2021/10/22 02:28:37;;;;;;;;;;;;;;;;;;1020819;29;1151;-10
2021/10/22 02:29:07;;;;;;;;;;;;;;;;;;1022071;28;1091;-11
2021/10/22 02:29:38;;;;;;;;;;;;;;;;;;1025188;28;1332;-10
2021/10/22 02:30:09;;;;;;;;;;;;;;;;;;1029839;28;1312;-11
2021/10/22 02:30:41;;;;;;;;;;;;;;;;;;1034507;28;1049;-10
2021/10/22 02:31:12;;;;;;;;;;;;;;;;;;1025349;28;1211;-11
2021/10/22 02:31:43;;;;;;;;;;;;;;;;;;1029619;28;1096;-10
2021/10/22 02:32:15;;;;;;;;;;;;;;;;;;1021472;29;1296;-11
2021/10/22 02:32:46;;;;;;;;;;;;;;;;;;1021872;29;1310;-11
2021/10/22 02:33:17;;;;;;;;;;;;;;;;;;1017673;29;1955;-10
2021/10/22 02:33:48;;;;;;;;;;;;;;;;;;1017478;29;1519;-10
2021/10/22 02:34:19;;;;;;;;;;;;;;;;;;1021712;29;1274;-11
2021/10/22 02:34:49;;;;;;;;;;;;;;;;;;1022226;29;1031;-11
2021/10/22 02:35:19;;;;;;;;;;;;;;;;;;1017600;29;1161;-11
2021/10/22 02:35:50;;;;;;;;;;;;;;;;;;1022215;29;1097;-11
2021/10/22 02:36:22;;;;;;;;;;;;;;;;;;1033782;28;1079;-11
2021/10/22 02:36:53;;;;;;;;;;;;;;;;;;1029676;28;1618;-10
2021/10/22 02:37:24;;;;;;;;;;;;;;;;;;1025678;28;1162;-10
2021/10/22 02:37:55;;;;;;;;;;;;;;;;;;1025555;28;1362;-11
2021/10/22 02:38:26;;;;;;;;;;;;;;;;;;1021785;28;1296;-11
2021/10/22 02:38:56;;;;;;;;;;;;;;;;;;1017822;29;1157;-10
2021/10/22 02:39:32;;;;;;;;;;;;;;;;;;1017936;29;1217;-11
2021/10/22 02:40:06;;;;;;;;;;;;;;;;;;1022347;29;1049;-11
2021/10/22 02:40:38;;;;;;;;;;;;;;;;;;1025785;28;1045;-11
2021/10/22 02:41:10;;;;;;;;;;;;;;;;;;1032711;28;1047;-11
2021/10/22 02:41:41;;;;;;;;;;;;;;;;;;1035026;28;1283;-11
2021/10/22 02:42:12;;;;;;;;;;;;;;;;;;1036767;28;1074;-11
2021/10/22 02:42:43;;;;;;;;;;;;;;;;;;1021348;29;1161;-11
2021/10/22 02:43:14;;;;;;;;;;;;;;;;;;1022151;28;1091;-10
2021/10/22 02:43:45;;;;;;;;;;;;;;;;;;1030133;28;1104;-11
2021/10/22 02:44:16;;;;;;;;;;;;;;;;;;1026246;28;1366;-10
2021/10/22 02:44:46;;;;;;;;;;;;;;;;;;1037810;28;1180;-11
2021/10/22 02:45:17;;;;;;;;;;;;;;;;;;1029921;28;1281;-10
2021/10/22 02:45:48;;;;;;;;;;;;;;;;;;1034319;28;1046;-11
2021/10/22 02:46:18;;;;;;;;;;;;;;;;;;1034100;28;901;-11
2021/10/22 02:46:49;;;;;;;;;;;;;;;;;;1021766;29;1796;-11
2021/10/22 02:47:21;;;;;;;;;;;;;;;;;;1021337;29;1326;-11
2021/10/22 02:47:51;;;;;;;;;;;;;;;;;;1013847;29;1216;-10
2021/10/22 02:48:22;;;;;;;;;;;;;;;;;;1021301;28;1378;-10
2021/10/22 02:48:53;;;;;;;;;;;;;;;;;;1025742;28;1158;-11
2021/10/22 02:49:23;;;;;;;;;;;;;;;;;;1026049;28;1061;-11
2021/10/22 02:49:54;;;;;;;;;;;;;;;;;;1029313;28;1202;-11
2021/10/22 02:50:25;;;;;;;;;;;;;;;;;;1029797;28;1028;-11
2021/10/22 02:50:56;;;;;;;;;;;;;;;;;;1021540;29;1219;-10
2021/10/22 02:51:28;;;;;;;;;;;;;;;;;;1025773;28;1100;-10
2021/10/22 02:51:59;;;;;;;;;;;;;;;;;;1022430;28;1102;-10
2021/10/22 02:52:30;;;;;;;;;;;;;;;;;;1021425;29;1029;-11
2021/10/22 02:53:02;;;;;;;;;;;;;;;;;;1017393;29;1243;-11
2021/10/22 02:53:32;;;;;;;;;;;;;;;;;;1020989;29;1903;-11
2021/10/22 02:54:03;;;;;;;;;;;;;;;;;;1021815;29;1280;-11
2021/10/22 02:54:34;;;;;;;;;;;;;;;;;;1025908;28;1378;-11
2021/10/22 02:55:06;;;;;;;;;;;;;;;;;;1029329;28;1186;-11
2021/10/22 02:55:37;;;;;;;;;;;;;;;;;;1037632;28;1079;-11
2021/10/22 02:56:08;;;;;;;;;;;;;;;;;;1033422;28;1269;-10
2021/10/22 02:56:39;;;;;;;;;;;;;;;;;;1033022;28;1197;-11
2021/10/22 02:57:09;;;;;;;;;;;;;;;;;;1034028;28;1403;-10
2021/10/22 02:57:40;;;;;;;;;;;;;;;;;;1026031;28;1210;-10
2021/10/22 02:58:11;;;;;;;;;;;;;;;;;;1029713;28;1194;-11
2021/10/22 02:58:42;;;;;;;;;;;;;;;;;;1026092;28;1064;-11
2021/10/22 02:59:13;;;;;;;;;;;;;;;;;;1021160;29;1700;-10
2021/10/22 02:59:44;;;;;;;;;;;;;;;;;;1021542;29;1385;-11
2021/10/22 03:00:16;;;;;;;;;;;;;;;;;;1017703;29;1394;-10
2021/10/22 03:00:47;;;;;;;;;;;;;;;;;;1025288;28;1281;-11
2021/10/22 03:01:18;;;;;;;;;;;;;;;;;;1025305;28;1476;-11
2021/10/22 03:01:49;;;;;;;;;;;;;;;;;;1028822;28;1431;-11
2021/10/22 03:02:20;;;;;;;;;;;;;;;;;;1025206;28;1205;-11
2021/10/22 03:02:50;;;;;;;;;;;;;;;;;;1021537;29;1334;-11
2021/10/22 03:03:22;;;;;;;;;;;;;;;;;;1021331;28;1241;-11
2021/10/22 03:03:52;;;;;;;;;;;;;;;;;;1024834;28;1152;-11
2021/10/22 03:04:23;;;;;;;;;;;;;;;;;;1025047;28;1386;-11
2021/10/22 03:04:55;;;;;;;;;;;;;;;;;;1025770;28;1068;-11
2021/10/22 03:05:26;;;;;;;;;;;;;;;;;;1026072;28;1202;-10
2021/10/22 03:05:56;;;;;;;;;;;;;;;;;;1026352;28;1248;-11
2021/10/22 03:06:28;;;;;;;;;;;;;;;;;;1029631;28;1251;-11
2021/10/22 03:06:59;;;;;;;;;;;;;;;;;;1020904;29;1101;-10
2021/10/22 03:07:31;;;;;;;;;;;;;;;;;;1017440;29;1240;-10
2021/10/22 03:08:02;;;;;;;;;;;;;;;;;;1025409;28;1104;-10
2021/10/22 03:08:32;;;;;;;;;;;;;;;;;;1021714;28;1626;-10
2021/10/22 03:09:03;;;;;;;;;;;;;;;;;;1033232;28;1703;-10
2021/10/22 03:09:35;;;;;;;;;;;;;;;;;;1029830;28;1549;-11
2021/10/22 03:10:07;;;;;;;;;;;;;;;;;;1025918;28;1488;-11
2021/10/22 03:10:37;;;;;;;;;;;;;;;;;;1026430;28;1080;-11
2021/10/22 03:11:09;;;;;;;;;;;;;;;;;;1029700;28;1257;-11
2021/10/22 03:11:40;;;;;;;;;;;;;;;;;;1030116;28;1074;-11
2021/10/22 03:12:10;;;;;;;;;;;;;;;;;;1029526;28;1799;-11
2021/10/22 03:12:41;;;;;;;;;;;;;;;;;;1025899;28;1197;-11
2021/10/22 03:13:13;;;;;;;;;;;;;;;;;;1029957;28;1095;-10
2021/10/22 03:13:43;;;;;;;;;;;;;;;;;;1033458;28;1531;-11
2021/10/22 03:14:14;;;;;;;;;;;;;;;;;;1025157;28;1189;-11
2021/10/22 03:14:45;;;;;;;;;;;;;;;;;;1021919;29;1198;-10
2021/10/22 03:15:16;;;;;;;;;;;;;;;;;;1021225;29;1691;-10
2021/10/22 03:15:47;;;;;;;;;;;;;;;;;;1029994;28;1208;-10
2021/10/22 03:16:17;;;;;;;;;;;;;;;;;;1029360;28;1191;-10
2021/10/22 03:16:48;;;;;;;;;;;;;;;;;;1033950;28;1072;-11
2021/10/22 03:17:19;;;;;;;;;;;;;;;;;;1034039;28;1027;-11
2021/10/22 03:17:49;;;;;;;;;;;;;;;;;;1024747;28;1226;-11
2021/10/22 03:18:20;;;;;;;;;;;;;;;;;;1017668;29;1191;-11
2021/10/22 03:18:51;;;;;;;;;;;;;;;;;;1017828;29;1296;-11
2021/10/22 03:19:22;;;;;;;;;;;;;;;;;;1021903;29;1034;-11
2021/10/22 03:19:52;;;;;;;;;;;;;;;;;;1026027;28;1234;-10
2021/10/22 03:20:23;;;;;;;;;;;;;;;;;;1037514;28;1779;-10
2021/10/22 03:20:54;;;;;;;;;;;;;;;;;;1029623;28;1284;-11
2021/10/22 03:21:25;;;;;;;;;;;;;;;;;;1025907;28;1081;-10
2021/10/22 03:21:55;;;;;;;;;;;;;;;;;;1024934;28;1322;-11
2021/10/22 03:22:27;;;;;;;;;;;;;;;;;;1025916;28;1384;-11
2021/10/22 03:22:57;;;;;;;;;;;;;;;;;;1029102;28;1436;-11
2021/10/22 03:23:28;;;;;;;;;;;;;;;;;;1033545;28;1288;-10
2021/10/22 03:23:59;;;;;;;;;;;;;;;;;;1034129;28;908;-11
2021/10/22 03:24:31;;;;;;;;;;;;;;;;;;1032019;28;1206;-10
2021/10/22 03:25:01;;;;;;;;;;;;;;;;;;1029625;28;1184;-10
2021/10/22 03:25:32;;;;;;;;;;;;;;;;;;1025260;28;1496;-10
2021/10/22 03:26:03;;;;;;;;;;;;;;;;;;1026328;28;1265;-11
2021/10/22 03:26:33;;;;;;;;;;;;;;;;;;1037809;28;1188;-10
2021/10/22 03:27:10;;;;;;;;;;;;;;;;;;1029026;28;1745;-10
2021/10/22 03:27:42;;;;;;;;;;;;;;;;;;1029813;28;1251;-10
2021/10/22 03:28:13;;;;;;;;;;;;;;;;;;1019786;29;1624;-10
2021/10/22 03:28:44;;;;;;;;;;;;;;;;;;1018629;29;1247;-11
2021/10/22 03:29:15;;;;;;;;;;;;;;;;;;1021790;29;1263;-10
2021/10/22 03:29:45;;;;;;;;;;;;;;;;;;1021637;28;1249;-10
2021/10/22 03:30:16;;;;;;;;;;;;;;;;;;1029376;28;1483;-11
2021/10/22 03:30:47;;;;;;;;;;;;;;;;;;1034082;28;1199;-10
2021/10/22 03:31:17;;;;;;;;;;;;;;;;;;1025155;28;1781;-11
2021/10/22 03:31:48;;;;;;;;;;;;;;;;;;1022011;29;1169;-11
2021/10/22 03:32:19;;;;;;;;;;;;;;;;;;1021256;29;1149;-11
2021/10/22 03:32:51;;;;;;;;;;;;;;;;;;1014984;28;1184;-11
2021/10/22 03:33:22;;;;;;;;;;;;;;;;;;1025873;28;1981;-11
2021/10/22 03:33:52;;;;;;;;;;;;;;;;;;1025632;28;1211;-11
2021/10/22 03:34:23;;;;;;;;;;;;;;;;;;1022537;28;1182;-10
2021/10/22 03:34:53;;;;;;;;;;;;;;;;;;1029396;28;1187;-11
2021/10/22 03:35:24;;;;;;;;;;;;;;;;;;1029733;28;1248;-11
2021/10/22 03:35:54;;;;;;;;;;;;;;;;;;1029577;28;1214;-13